Time;durP1;ratioP1;P1;durP2;ratioP2;P2;SDS_P1;SDS_P2;PMS_P1;PMS_P2;Temp;Humidity;BMP_temperature;BMP_pressure;BME280_temperature;BME280_humidity;BME280_pressure;Samples;Min_cycle;Max_cycle;Signal;HPM_P1;HPM_P2
2023/09/22 00:01:08;;;;;;;6.28;2.90;;;;;;;20.16;61.70;97688.97;5085043;28;20051;-75
2023/09/22 00:03:36;;;;;;;6.22;2.78;;;;;;;20.24;61.81;97696.16;5085263;28;20041;-74
2023/09/22 00:06:03;;;;;;;5.50;3.30;;;;;;;20.23;61.89;97690.94;5085226;28;20192;-74
2023/09/22 00:08:30;;;;;;;5.68;2.80;;;;;;;20.26;62.19;97682.50;5087867;28;20047;-75
2023/09/22 00:10:58;;;;;;;6.57;3.22;;;;;;;20.18;62.10;97689.63;5089045;28;20052;-75
2023/09/22 00:13:25;;;;;;;8.07;2.95;;;;;;;20.16;61.49;97694.34;5087897;28;20044;-75
2023/09/22 00:15:53;;;;;;;6.78;2.70;;;;;;;20.16;61.89;97685.44;5089307;28;20104;-75
2023/09/22 00:18:19;;;;;;;6.57;3.35;;;;;;;20.08;61.43;97685.53;5088145;28;20068;-74
2023/09/22 00:20:47;;;;;;;7.32;3.58;;;;;;;20.07;61.78;97691.94;5087849;28;20220;-75
2023/09/22 00:23:15;;;;;;;4.53;2.60;;;;;;;20.00;61.91;97704.44;5088700;28;20359;-75
2023/09/22 00:25:42;;;;;;;4.70;2.83;;;;;;;19.79;61.77;97681.78;5089073;28;20052;-75
2023/09/22 00:28:09;;;;;;;9.43;3.40;;;;;;;19.85;62.00;97707.97;5087647;28;20040;-75
2023/09/22 00:30:36;;;;;;;4.00;2.70;;;;;;;19.94;62.37;97703.34;5088772;28;20224;-74
2023/09/22 00:33:02;;;;;;;4.55;3.17;;;;;;;19.91;62.13;97668.75;5088660;28;20105;-75
2023/09/22 00:35:29;;;;;;;5.05;3.10;;;;;;;20.03;62.16;97696.84;5088038;28;20045;-75
2023/09/22 00:37:57;;;;;;;6.63;3.30;;;;;;;19.90;62.41;97709.25;5088279;28;20036;-75
2023/09/22 00:40:24;;;;;;;4.47;2.90;;;;;;;20.06;63.13;97699.16;5088366;28;20052;-74
2023/09/22 00:43:06;;;;;;;7.85;2.80;;;;;;;19.99;62.14;97698.25;5088824;28;20044;-75
2023/09/22 00:45:33;;;;;;;6.05;2.80;;;;;;;20.05;62.41;97697.50;5087393;28;20063;-74
2023/09/22 00:48:00;;;;;;;7.10;2.80;;;;;;;19.95;62.54;97706.84;5088423;28;20040;-74
2023/09/22 00:50:27;;;;;;;7.05;3.13;;;;;;;20.00;62.60;97705.28;5088195;28;20232;-75
2023/09/22 00:52:53;;;;;;;4.90;2.85;;;;;;;20.03;62.86;97710.28;5088353;28;20058;-74
2023/09/22 00:55:22;;;;;;;4.13;2.60;;;;;;;20.08;63.08;97705.19;5088389;28;20044;-75
2023/09/22 00:57:48;;;;;;;4.72;2.38;;;;;;;20.07;63.22;97710.75;5087140;28;20044;-74
2023/09/22 01:00:16;;;;;;;4.85;3.10;;;;;;;20.08;63.03;97702.50;5088237;28;20401;-75
2023/09/22 01:02:43;;;;;;;5.45;2.97;;;;;;;20.09;63.42;97697.97;5087071;28;20346;-75
2023/09/22 01:05:10;;;;;;;4.18;2.67;;;;;;;19.56;63.68;97616.50;5087571;28;20036;-75
2023/09/22 01:07:38;;;;;;;5.35;2.80;;;;;;;20.07;63.12;97711.59;5070359;28;20094;-75
2023/09/22 01:10:09;;;;;;;5.40;2.85;;;;;;;20.04;63.14;97711.97;5087520;28;20320;-74
2023/09/22 01:12:37;;;;;;;5.95;3.05;;;;;;;19.88;63.14;97690.63;5087674;28;20089;-74
2023/09/22 01:15:08;;;;;;;4.32;2.78;;;;;;;20.02;63.42;97710.47;5087976;28;20052;-74
2023/09/22 01:17:35;;;;;;;5.63;3.30;;;;;;;19.98;63.75;97712.69;5087137;28;20036;-74
2023/09/22 01:20:04;;;;;;;6.80;3.83;;;;;;;20.01;63.54;97709.66;5087599;28;20066;-74
2023/09/22 01:22:34;;;;;;;7.35;3.38;;;;;;;20.01;64.25;97706.13;5087885;28;20291;-75
2023/09/22 01:25:00;;;;;;;6.00;3.08;;;;;;;19.99;63.76;97703.63;5087825;28;20048;-75
2023/09/22 01:27:27;;;;;;;7.40;3.20;;;;;;;19.96;63.96;97714.75;5087408;28;20041;-75
2023/09/22 01:29:54;;;;;;;4.63;2.42;;;;;;;19.95;64.10;97710.38;5087027;28;20094;-75
2023/09/22 01:32:20;;;;;;;4.75;2.95;;;;;;;19.95;63.74;97706.84;5069869;28;20043;-75
2023/09/22 01:34:47;;;;;;;6.38;3.10;;;;;;;19.94;63.65;97721.31;5087423;28;20086;-75
2023/09/22 01:37:14;;;;;;;6.18;3.10;;;;;;;19.89;64.07;97718.34;5087548;28;20053;-74
2023/09/22 01:39:42;;;;;;;7.35;2.78;;;;;;;19.91;64.67;97725.22;5087485;28;20086;-74
2023/09/22 01:42:09;;;;;;;4.90;2.95;;;;;;;19.88;64.40;97713.97;5087131;28;20082;-75
2023/09/22 01:44:35;;;;;;;4.70;2.80;;;;;;;19.85;64.06;97721.41;5086651;28;20048;-74
2023/09/22 01:47:02;;;;;;;6.03;3.00;;;;;;;19.86;64.84;97716.84;5087871;28;20040;-74
2023/09/22 01:49:29;;;;;;;8.70;3.20;;;;;;;19.86;64.18;97722.22;5087247;28;20051;-74
2023/09/22 01:51:55;;;;;;;4.55;3.15;;;;;;;19.82;64.00;97721.75;5086135;28;20047;-75
2023/09/22 01:54:22;;;;;;;6.57;3.65;;;;;;;19.82;64.20;97721.75;5086057;28;20045;-75
2023/09/22 01:56:50;;;;;;;8.20;3.15;;;;;;;19.79;63.96;97715.88;5086261;28;20036;-75
2023/09/22 01:59:17;;;;;;;5.85;2.65;;;;;;;19.77;64.19;97715.22;5087078;28;20059;-75
2023/09/22 02:01:44;;;;;;;5.13;2.63;;;;;;;19.75;64.55;97711.88;5085853;28;20043;-75
2023/09/22 02:04:10;;;;;;;4.80;2.75;;;;;;;19.73;64.15;97701.31;5086668;28;20040;-75
2023/09/22 02:06:37;;;;;;;4.85;3.42;;;;;;;19.70;64.04;97700.84;5087179;28;20056;-74
2023/09/22 02:09:04;;;;;;;6.63;2.83;;;;;;;19.71;64.50;97703.34;5086484;28;20044;-74
2023/09/22 02:11:31;;;;;;;5.95;2.97;;;;;;;19.72;64.70;97704.19;5086816;28;20040;-75
2023/09/22 02:13:59;;;;;;;4.28;2.72;;;;;;;19.70;64.80;97703.53;5086763;28;20112;-75
2023/09/22 02:16:26;;;;;;;5.35;2.80;;;;;;;19.68;64.19;97705.56;5085736;28;20075;-74
2023/09/22 02:18:53;;;;;;;5.05;3.05;;;;;;;19.23;64.62;97622.16;5086557;28;20032;-74
2023/09/22 02:21:19;;;;;;;4.05;2.75;;;;;;;19.64;64.64;97685.47;5086205;28;20067;-75
2023/09/22 02:23:46;;;;;;;9.43;3.75;;;;;;;19.33;64.71;97648.75;5069103;28;20079;-75
2023/09/22 02:26:14;;;;;;;4.32;3.05;;;;;;;19.58;64.83;97689.69;5085854;28;20090;-75
2023/09/22 02:28:41;;;;;;;5.25;3.05;;;;;;;19.57;65.27;97693.41;5086086;28;20048;-75
2023/09/22 02:31:09;;;;;;;4.82;2.97;;;;;;;19.06;64.60;97620.59;5085879;28;20044;-75
2023/09/22 02:33:36;;;;;;;5.15;3.42;;;;;;;19.49;65.04;97720.34;5086479;28;20098;-75
2023/09/22 02:36:05;;;;;;;7.90;3.10;;;;;;;19.52;65.33;97715.44;5085239;28;20127;-75
2023/09/22 02:38:32;;;;;;;5.45;3.25;;;;;;;19.07;64.48;97659.03;5086323;28;20063;-75
2023/09/22 02:40:58;;;;;;;5.32;3.15;;;;;;;19.46;65.41;97709.97;5086577;28;20041;-75
2023/09/22 02:43:25;;;;;;;4.22;2.80;;;;;;;19.45;64.98;97709.13;5086214;28;20048;-75
2023/09/22 02:45:52;;;;;;;5.10;2.50;;;;;;;19.16;64.97;97674.91;5085064;28;20044;-75
2023/09/22 02:48:20;;;;;;;5.85;2.83;;;;;;;19.46;65.26;97726.91;5085020;28;20040;-75
2023/09/22 02:50:47;;;;;;;7.47;3.88;;;;;;;19.39;65.47;97734.03;5085044;28;20045;-74
2023/09/22 02:53:15;;;;;;;5.63;3.03;;;;;;;19.35;65.26;97731.84;5086146;28;20044;-74
2023/09/22 02:55:42;;;;;;;7.15;3.28;;;;;;;19.33;65.27;97723.97;5085926;28;20040;-75
2023/09/22 02:58:09;;;;;;;7.28;2.80;;;;;;;19.39;65.43;97725.97;5086029;28;20045;-75
2023/09/22 03:00:35;;;;;;;4.20;2.70;;;;;;;19.38;65.13;97726.94;5086986;28;20050;-75
2023/09/22 03:03:03;;;;;;;5.97;2.83;;;;;;;19.19;64.66;97727.41;5085619;28;20048;-75
2023/09/22 03:05:33;;;;;;;5.00;3.10;;;;;;;19.12;64.68;97723.78;5086229;28;20048;-75
2023/09/22 03:07:59;;;;;;;6.03;2.90;;;;;;;18.87;65.56;97680.97;5086077;28;20044;-75
2023/09/22 03:10:26;;;;;;;5.35;3.00;;;;;;;19.11;65.84;97735.53;5085641;28;20040;-75
2023/09/22 03:12:53;;;;;;;4.38;2.67;;;;;;;19.20;65.63;97734.47;5085534;28;20090;-75
2023/09/22 03:15:20;;;;;;;6.13;2.55;;;;;;;19.01;65.40;97702.69;5085889;28;20055;-75
2023/09/22 03:17:47;;;;;;;4.60;2.58;;;;;;;19.16;65.65;97742.03;5085569;28;20181;-75
2023/09/22 03:20:15;;;;;;;7.22;2.67;;;;;;;16.49;65.61;97308.03;5084497;28;20059;-75
2023/09/22 03:22:43;;;;;;;5.97;3.33;;;;;;;19.19;65.61;97749.75;5084607;28;20078;-75
2023/09/22 03:25:10;;;;;;;4.60;3.08;;;;;;;19.19;65.91;97759.66;5084321;28;20052;-75
2023/09/22 03:27:37;;;;;;;6.95;3.50;;;;;;;19.19;66.75;97755.09;5084596;28;20036;-75
2023/09/22 03:30:07;;;;;;;4.70;3.05;;;;;;;19.18;66.59;97752.59;5084502;28;20050;-75
2023/09/22 03:32:35;;;;;;;5.90;3.38;;;;;;;19.18;66.46;97752.59;5085920;28;20082;-75
2023/09/22 03:35:06;;;;;;;7.85;3.13;;;;;;;19.14;66.59;97756.66;5085935;28;20087;-75
2023/09/22 03:37:32;;;;;;;9.05;4.07;;;;;;;19.12;67.27;97748.78;5085039;28;20044;-75
2023/09/22 03:40:09;;;;;;;6.82;4.80;;;;;;;18.79;67.55;97704.34;5085601;28;20094;-75
2023/09/22 03:42:36;;;;;;;6.90;4.22;;;;;;;19.13;67.33;97765.72;5087846;28;20045;-75
2023/09/22 03:45:04;;;;;;;6.00;3.70;;;;;;;19.11;68.02;97762.38;5089649;28;20048;-75
2023/09/22 03:47:32;;;;;;;5.65;3.63;;;;;;;19.14;67.28;97770.09;5089368;28;20086;-75
2023/09/22 03:49:59;;;;;;;6.72;4.97;;;;;;;19.10;67.63;97776.81;5089808;28;20055;-75
2023/09/22 03:52:26;;;;;;;5.47;3.67;;;;;;;19.07;68.18;97786.06;5088914;28;20043;-75
2023/09/22 03:54:53;;;;;;;4.70;3.22;;;;;;;19.11;67.43;97798.13;5089778;28;20040;-75
2023/09/22 03:57:21;;;;;;;6.03;3.75;;;;;;;19.09;68.18;97808.19;5089688;28;20052;-75
2023/09/22 03:59:48;;;;;;;6.72;4.35;;;;;;;18.47;67.22;97716.88;5089512;28;20037;-75
2023/09/22 04:02:14;;;;;;;4.85;3.47;;;;;;;19.07;67.67;97823.66;5089339;28;20052;-75
2023/09/22 04:04:41;;;;;;;8.60;3.90;;;;;;;19.03;67.39;97825.00;5089028;28;20052;-75
2023/09/22 04:07:08;;;;;;;7.40;3.40;;;;;;;19.03;67.62;97825.00;5089300;28;20054;-75
2023/09/22 04:09:35;;;;;;;5.93;3.47;;;;;;;18.88;67.91;97816.03;5104981;28;20037;-75
2023/09/22 04:12:02;;;;;;;7.70;4.13;;;;;;;18.87;68.05;97820.56;5089178;28;20203;-75
2023/09/22 04:14:30;;;;;;;5.70;3.33;;;;;;;18.87;68.20;97836.66;5088012;28;20300;-75
2023/09/22 04:16:57;;;;;;;6.70;3.40;;;;;;;17.83;67.74;97669.66;5089128;28;20045;-75
2023/09/22 04:19:24;;;;;;;5.40;3.75;;;;;;;18.83;67.80;97864.84;5087694;28;20041;-76
2023/09/22 04:21:54;;;;;;;6.03;4.20;;;;;;;18.76;67.61;97896.06;5089026;28;20292;-75
2023/09/22 04:24:21;;;;;;;4.72;3.08;;;;;;;18.50;67.56;97856.03;5089025;28;20099;-75
2023/09/22 04:26:49;;;;;;;5.20;2.70;;;;;;;18.49;67.33;97856.19;5087784;28;20036;-75
2023/09/22 04:29:16;;;;;;;6.78;3.05;;;;;;;18.62;67.33;97885.22;5088482;28;20132;-75
2023/09/22 04:31:44;;;;;;;7.38;2.92;;;;;;;18.63;66.85;97889.56;5088300;28;20041;-75
2023/09/22 04:34:11;;;;;;;7.30;3.00;;;;;;;18.59;67.30;97886.38;5088833;28;20044;-75
2023/09/22 04:36:40;;;;;;;6.47;3.45;;;;;;;18.54;68.05;97883.38;5088771;28;20068;-76
2023/09/22 04:39:08;;;;;;;5.60;2.55;;;;;;;18.26;67.84;97840.81;5088661;28;20102;-76
2023/09/22 04:41:35;;;;;;;4.78;2.63;;;;;;;18.52;68.40;97890.75;5088697;28;20187;-75
2023/09/22 04:44:02;;;;;;;7.70;3.45;;;;;;;18.38;67.62;97883.38;5088640;28;20102;-75
2023/09/22 04:46:28;;;;;;;7.30;3.95;;;;;;;18.18;67.24;97850.69;5088546;28;20284;-75
2023/09/22 04:48:57;;;;;;;5.43;3.70;;;;;;;18.52;67.45;97890.75;5088177;28;20037;-75
2023/09/22 04:51:23;;;;;;;6.47;3.30;;;;;;;18.66;66.98;97892.75;5088520;28;20048;-75
2023/09/22 04:53:51;;;;;;;5.78;3.75;;;;;;;18.67;66.74;97891.72;5087328;28;20326;-75
2023/09/22 04:56:19;;;;;;;5.22;3.15;;;;;;;18.69;67.05;97888.88;5088829;28;20040;-75
2023/09/22 04:58:47;;;;;;;5.53;3.53;;;;;;;18.66;67.14;97894.59;5087277;28;20082;-75
2023/09/22 05:01:15;;;;;;;8.02;3.55;;;;;;;18.39;66.89;97867.09;5088275;28;20119;-75
2023/09/22 05:03:41;;;;;;;4.63;3.17;;;;;;;18.63;67.11;97887.72;5088244;28;20093;-75
2023/09/22 05:06:09;;;;;;;7.35;3.38;;;;;;;18.69;66.94;97883.50;5088188;28;20182;-75
2023/09/22 05:08:37;;;;;;;5.47;3.22;;;;;;;18.66;66.55;97894.59;5086915;28;20044;-75
2023/09/22 05:11:07;;;;;;;4.43;3.03;;;;;;;17.94;66.74;97814.88;5087976;28;20041;-75
2023/09/22 05:13:34;;;;;;;4.78;3.10;;;;;;;18.67;66.46;97893.59;5088048;28;20044;-75
2023/09/22 05:16:06;;;;;;;5.03;2.95;;;;;;;18.57;66.00;97880.34;5086906;28;20264;-75
2023/09/22 05:18:34;;;;;;;6.63;3.40;;;;;;;18.70;65.83;97910.19;5087759;28;20048;-75
2023/09/22 05:21:01;;;;;;;4.80;2.92;;;;;;;18.74;66.40;97908.81;5087560;28;20348;-75
2023/09/22 05:23:32;;;;;;;5.70;3.38;;;;;;;18.15;65.82;97792.06;5087820;28;20049;-75
2023/09/22 05:25:59;;;;;;;4.68;2.83;;;;;;;18.52;65.66;97867.44;5087560;28;20312;-75
2023/09/22 05:28:25;;;;;;;6.03;3.00;;;;;;;18.77;65.84;97915.69;5087074;28;20055;-75
2023/09/22 05:30:52;;;;;;;6.68;3.10;;;;;;;18.79;65.47;97908.31;5087435;28;20052;-75
2023/09/22 05:33:19;;;;;;;12.00;4.15;;;;;;;18.58;65.58;97869.44;5087552;28;20041;-75
2023/09/22 05:35:46;;;;;;;4.20;2.85;;;;;;;18.88;65.86;97908.13;5086425;28;20029;-75
2023/09/22 05:38:12;;;;;;;5.40;2.95;;;;;;;18.82;64.91;97898.06;5086427;28;20223;-75
2023/09/22 05:40:41;;;;;;;4.10;2.78;;;;;;;18.92;65.29;97897.88;5087206;28;20049;-75
2023/09/22 05:43:10;;;;;;;5.72;3.15;;;;;;;18.92;65.03;97906.75;5086874;28;20044;-75
2023/09/22 05:45:36;;;;;;;5.05;3.28;;;;;;;18.66;65.01;97865.06;5087299;28;20052;-75
2023/09/22 05:48:04;;;;;;;5.53;3.33;;;;;;;18.88;64.75;97893.88;5087044;28;20044;-75
2023/09/22 05:50:31;;;;;;;9.05;3.47;;;;;;;18.88;65.05;97883.97;5087490;28;20051;-75
2023/09/22 05:52:58;;;;;;;5.35;2.70;;;;;;;18.82;64.42;97898.06;5087542;28;20055;-75
2023/09/22 05:55:27;;;;;;;3.80;2.40;;;;;;;18.86;63.99;97888.66;5086963;28;20040;-75
2023/09/22 05:57:55;;;;;;;3.33;2.20;;;;;;;18.88;64.02;97870.53;5086866;28;20045;-75
2023/09/22 06:00:26;;;;;;;2.97;2.00;;;;;;;18.39;63.35;97802.72;5086570;28;20288;-75
2023/09/22 06:02:54;;;;;;;6.55;2.00;;;;;;;18.90;62.68;97905.25;5086752;28;20028;-74
2023/09/22 06:05:22;;;;;;;3.53;1.95;;;;;;;18.91;63.09;97894.34;5086749;28;20047;-75
2023/09/22 06:07:49;;;;;;;3.25;2.20;;;;;;;18.91;62.33;97890.84;5086871;28;20107;-75
2023/09/22 06:10:16;;;;;;;3.10;2.20;;;;;;;18.65;62.16;97845.44;5087037;28;20044;-75
2023/09/22 06:12:43;;;;;;;4.22;2.33;;;;;;;18.53;62.17;97828.88;5086516;28;20036;-75
2023/09/22 06:15:12;;;;;;;4.65;2.22;;;;;;;19.03;63.83;97913.63;5086779;28;20052;-75
2023/09/22 06:17:39;;;;;;;3.45;2.15;;;;;;;19.01;61.95;97907.59;5086576;28;20055;-75
2023/09/22 06:20:13;;;;;;;4.53;2.28;;;;;;;19.05;62.49;97916.13;5086655;28;20047;-75
2023/09/22 06:22:40;;;;;;;4.28;2.08;;;;;;;18.39;61.53;97816.16;5086444;28;20268;-75
2023/09/22 06:25:08;;;;;;;3.17;2.00;;;;;;;19.06;61.69;97920.50;5086255;28;20072;-75
2023/09/22 06:27:35;;;;;;;3.15;1.75;;;;;;;18.69;61.97;97876.31;5086801;28;20045;-75
2023/09/22 06:30:02;;;;;;;4.40;2.30;;;;;;;19.16;61.85;97942.59;5085306;28;20044;-75
2023/09/22 06:32:30;;;;;;;3.50;2.40;;;;;;;18.86;62.16;97890.50;5086481;28;20123;-76
2023/09/22 06:34:57;;;;;;;3.08;1.98;;;;;;;19.27;62.44;97958.34;5086444;28;20045;-75
2023/09/22 06:37:24;;;;;;;4.07;2.45;;;;;;;19.33;62.46;97964.88;5086258;28;20044;-75
2023/09/22 06:39:51;;;;;;;3.60;2.13;;;;;;;19.36;62.51;97970.75;5086083;28;20091;-75
2023/09/22 06:42:18;;;;;;;3.65;2.38;;;;;;;19.39;61.67;97986.53;5085632;28;20064;-75
2023/09/22 06:44:45;;;;;;;2.78;2.15;;;;;;;19.02;61.60;97922.69;5085625;28;20052;-75
2023/09/22 06:47:12;;;;;;;2.63;1.73;;;;;;;19.50;61.04;97979.94;5085982;28;20086;-75
2023/09/22 06:49:40;;;;;;;2.67;1.77;;;;;;;19.54;61.13;97983.97;5085005;28;20086;-75
2023/09/22 06:52:07;;;;;;;4.22;2.08;;;;;;;19.61;61.03;97998.38;5086088;28;20052;-75
2023/09/22 06:54:33;;;;;;;3.60;2.03;;;;;;;19.63;60.95;98001.72;5086315;28;20112;-75
2023/09/22 06:57:02;;;;;;;3.13;2.20;;;;;;;19.70;61.40;98012.63;5085081;28;20041;-75
2023/09/22 06:59:29;;;;;;;5.22;2.17;;;;;;;19.74;61.19;98019.31;5086264;28;20045;-75
2023/09/22 07:01:56;;;;;;;4.05;1.90;;;;;;;19.85;60.09;98021.66;5085382;28;20058;-75
2023/09/22 07:04:22;;;;;;;3.55;2.17;;;;;;;19.92;59.86;98019.94;5085832;28;20051;-75
2023/09/22 07:06:52;;;;;;;3.83;2.00;;;;;;;19.52;59.83;97954.59;5086236;28;20115;-75
2023/09/22 07:09:19;;;;;;;4.13;2.10;;;;;;;20.01;60.16;98040.41;5085564;28;20040;-75
2023/09/22 07:11:46;;;;;;;4.80;2.10;;;;;;;19.90;58.58;98005.84;5086041;28;20040;-75
2023/09/22 07:14:13;;;;;;;5.18;2.25;;;;;;;20.08;58.77;98045.91;5090933;28;20400;-76
2023/09/22 07:16:40;;;;;;;3.75;2.53;;;;;;;19.78;59.65;98007.22;5089148;28;20086;-76
2023/09/22 07:19:07;;;;;;;3.72;2.38;;;;;;;20.08;58.38;98068.25;5086838;28;20048;-75
2023/09/22 07:21:34;;;;;;;4.60;2.30;;;;;;;20.11;57.94;98049.09;5088929;28;20216;-75
2023/09/22 07:24:02;;;;;;;3.28;2.00;;;;;;;19.59;58.35;97953.88;5090121;28;20050;-76
2023/09/22 07:26:29;;;;;;;3.58;2.10;;;;;;;20.23;57.17;98057.63;5090218;28;20103;-75
2023/09/22 07:28:58;;;;;;;3.85;2.08;;;;;;;20.28;57.79;98057.94;5088267;28;20056;-75
2023/09/22 07:31:28;;;;;;;3.97;1.95;;;;;;;20.29;58.06;98074.91;5087860;28;20051;-75
2023/09/22 07:33:55;;;;;;;3.53;2.20;;;;;;;20.28;57.82;98060.63;5085756;28;20064;-76
2023/09/22 07:36:21;;;;;;;2.83;1.73;;;;;;;20.34;57.42;98061.75;5085548;28;20048;-75
2023/09/22 07:38:48;;;;;;;3.75;2.28;;;;;;;20.39;57.76;98060.22;5085852;28;20048;-76
2023/09/22 07:41:16;;;;;;;3.33;1.80;;;;;;;20.40;57.14;98058.34;5085539;28;20052;-75
2023/09/22 07:43:43;;;;;;;3.60;2.08;;;;;;;20.49;56.37;98050.06;5085594;28;20053;-75
2023/09/22 07:46:10;;;;;;;2.95;1.95;;;;;;;20.53;56.35;98055.91;5085535;28;20098;-75
2023/09/22 07:48:37;;;;;;;3.35;2.22;;;;;;;20.57;56.50;98046.47;5085152;28;20208;-75
2023/09/22 07:51:05;;;;;;;3.35;2.20;;;;;;;20.70;56.04;98049.41;5085080;28;20139;-75
2023/09/22 07:53:33;;;;;;;2.75;2.00;;;;;;;20.47;55.95;98003.66;5085412;28;20052;-75
2023/09/22 07:56:00;;;;;;;3.63;2.20;;;;;;;20.55;55.65;97999.22;5084899;28;20094;-74
2023/09/22 07:58:28;;;;;;;2.97;1.98;;;;;;;20.95;56.09;98044.66;5085229;28;20230;-75
2023/09/22 08:00:55;;;;;;;3.45;2.33;;;;;;;20.94;55.76;98039.44;5084025;28;20036;-75
2023/09/22 08:03:22;;;;;;;4.07;2.20;;;;;;;21.02;55.48;98037.53;5085429;28;20296;-75
2023/09/22 08:05:49;;;;;;;3.45;2.35;;;;;;;21.25;54.59;98026.72;5084935;28;20049;-75
2023/09/22 08:08:17;;;;;;;3.20;2.15;;;;;;;21.34;55.08;98020.22;5084133;28;20040;-75
2023/09/22 08:10:43;;;;;;;4.43;2.10;;;;;;;21.33;55.44;98021.22;5084382;28;20067;-75
2023/09/22 08:13:10;;;;;;;4.22;2.35;;;;;;;21.10;55.26;98002.44;5085405;28;20098;-75
2023/09/22 08:15:39;;;;;;;3.33;2.20;;;;;;;21.34;55.25;98049.00;5084728;28;20227;-75
2023/09/22 08:18:06;;;;;;;4.90;2.10;;;;;;;20.70;54.95;97939.03;5085142;28;20048;-75
2023/09/22 08:20:33;;;;;;;2.95;1.88;;;;;;;21.39;55.05;98039.34;5084896;28;20064;-74
2023/09/22 08:23:00;;;;;;;3.63;2.33;;;;;;;21.55;54.72;98037.50;5084845;28;20056;-74
2023/09/22 08:25:27;;;;;;;4.32;2.72;;;;;;;21.34;54.19;98006.75;5085150;28;20090;-75
2023/09/22 08:27:54;;;;;;;4.22;2.25;;;;;;;21.65;54.02;98063.16;5084359;28;20040;-75
2023/09/22 08:30:21;;;;;;;3.30;2.20;;;;;;;21.58;53.96;98037.13;5088019;28;20048;-75
2023/09/22 08:32:50;;;;;;;3.75;2.30;;;;;;;21.48;54.34;98010.47;5088813;28;20039;-75
2023/09/22 08:35:17;;;;;;;2.53;1.90;;;;;;;21.77;54.12;98056.28;5088456;28;20276;-75
2023/09/22 08:37:44;;;;;;;4.10;2.20;;;;;;;21.93;53.68;98047.19;5088699;28;20119;-75
2023/09/22 08:40:14;;;;;;;3.90;2.20;;;;;;;22.09;52.96;98048.81;5088857;28;20041;-74
2023/09/22 08:42:44;;;;;;;3.45;2.25;;;;;;;22.11;53.27;98035.97;5088797;28;20375;-75
2023/09/22 08:45:11;;;;;;;3.83;2.00;;;;;;;22.11;54.17;98022.50;5088162;28;20272;-75
2023/09/22 08:47:40;;;;;;;3.25;2.53;;;;;;;22.27;53.10;98030.34;5087286;28;20040;-75
2023/09/22 08:50:13;;;;;;;4.10;2.33;;;;;;;21.93;53.09;97992.41;5087985;28;20244;-75
2023/09/22 08:52:41;;;;;;;3.10;2.00;;;;;;;22.09;52.38;98005.66;5087259;28;20086;-75
2023/09/22 08:55:13;;;;;;;5.53;2.67;;;;;;;22.13;52.68;97995.31;5087177;28;20047;-75
2023/09/22 08:57:44;;;;;;;2.97;2.13;;;;;;;21.63;53.04;97879.19;5088513;28;20227;-75
2023/09/22 09:00:18;;;;;;;3.03;2.13;;;;;;;22.42;52.49;98016.84;5087232;28;20252;-75
2023/09/22 09:02:45;;;;;;;4.88;2.20;;;;;;;22.50;52.84;98011.31;5087108;28;20047;-75
2023/09/22 09:05:30;;;;;;;4.15;2.20;;;;;;;22.63;52.02;98016.88;5088247;28;20040;-75
2023/09/22 09:07:57;;;;;;;2.90;2.15;;;;;;;22.62;51.97;98012.50;5088164;28;20303;-75
2023/09/22 09:10:29;;;;;;;4.20;1.98;;;;;;;22.66;51.93;98015.66;5087764;28;20040;-75
2023/09/22 09:12:56;;;;;;;4.25;2.20;;;;;;;22.73;51.28;98006.59;5087806;28;20040;-75
2023/09/22 09:15:27;;;;;;;4.45;2.83;;;;;;;23.08;49.69;98001.25;5086827;28;20048;-74
2023/09/22 09:18:05;;;;;;;3.92;2.60;;;;;;;22.99;51.02;98002.44;5086551;28;20239;-76
2023/09/22 09:20:37;;;;;;;4.72;2.50;;;;;;;23.06;51.01;98014.13;5086525;28;20099;-75
2023/09/22 09:23:15;;;;;;;5.55;2.75;;;;;;;23.17;51.23;98010.03;5088079;28;20127;-74
2023/09/22 09:25:43;;;;;;;6.70;2.08;;;;;;;22.71;50.27;97937.59;5087215;28;20044;-73
2023/09/22 09:28:12;;;;;;;2.83;1.65;;;;;;;23.28;49.66;98004.13;5087651;28;20075;-74
2023/09/22 09:30:39;;;;;;;6.15;1.90;;;;;;;22.77;49.81;97914.38;5086382;28;20033;-74
2023/09/22 09:33:11;;;;;;;3.20;2.10;;;;;;;23.43;50.24;98018.38;5088132;28;20196;-74
2023/09/22 09:35:41;;;;;;;3.35;2.17;;;;;;;23.44;50.05;98016.50;5086341;28;20075;-74
2023/09/22 09:38:09;;;;;;;4.45;2.60;;;;;;;23.63;48.71;98003.09;5087690;28;20041;-74
2023/09/22 09:40:38;;;;;;;3.80;2.30;;;;;;;22.77;49.54;97841.44;5086842;28;20292;-74
2023/09/22 09:43:10;;;;;;;3.83;2.33;;;;;;;23.04;50.06;97908.09;5086994;28;20044;-74
2023/09/22 09:45:45;;;;;;;2.45;1.65;;;;;;;23.83;50.61;98003.19;5087276;28;20279;-74
2023/09/22 09:48:16;;;;;;;3.78;2.60;;;;;;;23.18;48.72;97893.63;5086908;28;20052;-74
2023/09/22 09:50:48;;;;;;;3.85;2.40;;;;;;;23.94;48.81;97985.53;5086914;28;20067;-74
2023/09/22 09:53:24;;;;;;;3.80;2.45;;;;;;;23.95;48.20;97979.91;5087113;28;20219;-74
2023/09/22 09:55:56;;;;;;;3.10;2.22;;;;;;;24.05;47.88;97978.72;5087457;28;20288;-75
2023/09/22 09:58:26;;;;;;;3.85;2.78;;;;;;;24.16;47.21;97984.38;5086845;28;20052;-75
2023/09/22 10:00:54;;;;;;;3.53;2.65;;;;;;;23.92;47.91;97950.56;5086561;28;20051;-74
2023/09/22 10:03:21;;;;;;;5.63;2.25;;;;;;;24.20;49.36;97998.34;5085518;28;20048;-74
2023/09/22 10:05:52;;;;;;;3.90;2.30;;;;;;;23.91;48.79;97956.19;5087182;28;20185;-75
2023/09/22 10:08:21;;;;;;;3.40;2.30;;;;;;;24.17;48.38;97991.47;5086900;28;20051;-75
2023/09/22 10:10:50;;;;;;;4.45;2.40;;;;;;;24.34;46.79;97978.38;5086420;28;20040;-74
2023/09/22 10:13:17;;;;;;;2.80;2.15;;;;;;;24.21;47.70;97973.78;5085873;28;20040;-75
2023/09/22 10:15:55;;;;;;;7.13;3.03;;;;;;;24.20;44.80;97938.78;5086793;28;20110;-74
2023/09/22 10:18:24;;;;;;;4.18;2.60;;;;;;;24.71;44.26;97987.84;5086868;28;20048;-74
2023/09/22 10:20:53;;;;;;;4.45;2.30;;;;;;;24.79;44.67;97990.34;5086098;28;20308;-74
2023/09/22 10:23:23;;;;;;;3.70;2.47;;;;;;;24.70;46.12;97988.06;5085561;28;20055;-75
2023/09/22 10:26:16;;;;;;;3.22;2.20;;;;;;;24.83;46.13;97985.34;5086726;28;20044;-75
2023/09/22 10:28:44;;;;;;;6.38;3.83;;;;;;;24.86;45.08;97990.34;5086660;28;20068;-74
2023/09/22 10:31:11;;;;;;;4.15;2.40;;;;;;;24.54;44.29;97951.34;5086349;28;20058;-74
2023/09/22 10:33:38;;;;;;;5.18;2.80;;;;;;;24.94;43.53;97998.25;5085280;28;20127;-74
2023/09/22 10:36:08;;;;;;;4.82;2.50;;;;;;;25.01;43.81;97977.44;5086393;28;20048;-74
2023/09/22 10:38:56;;;;;;;4.25;2.35;;;;;;;24.34;44.29;97853.84;5085099;28;20082;-75
2023/09/22 10:41:23;;;;;;;4.82;2.38;;;;;;;25.15;43.67;97972.84;5086343;28;20049;-74
2023/09/22 10:43:58;;;;;;;2.80;1.80;;;;;;;25.12;43.20;97979.53;5085026;28;20048;-74
2023/09/22 10:46:25;;;;;;;4.68;2.10;;;;;;;25.30;44.78;97970.72;5086407;28;20052;-74
2023/09/22 10:48:52;;;;;;;4.25;2.17;;;;;;;25.10;44.42;97950.97;5086487;28;20269;-74
2023/09/22 10:51:22;;;;;;;5.10;2.53;;;;;;;25.12;42.43;97917.16;5084637;28;20059;-75
2023/09/22 10:53:58;;;;;;;4.88;2.50;;;;;;;25.64;41.25;97957.94;5085691;28;20056;-75
2023/09/22 10:56:25;;;;;;;5.43;2.80;;;;;;;25.69;42.55;97958.13;5084538;28;20098;-74
2023/09/22 10:58:53;;;;;;;4.60;2.30;;;;;;;25.40;43.29;97925.06;5084715;28;20079;-74
2023/09/22 11:01:22;;;;;;;3.35;2.05;;;;;;;25.56;42.64;97962.56;5084728;28;20037;-74
2023/09/22 11:03:53;;;;;;;3.38;2.35;;;;;;;25.44;44.05;97964.25;5085602;28;20090;-74
2023/09/22 11:06:21;;;;;;;4.55;2.17;;;;;;;25.46;43.61;97964.03;5085409;28;20048;-74
2023/09/22 11:08:50;;;;;;;3.08;1.92;;;;;;;25.49;44.35;97941.91;5084271;28;20106;-74
2023/09/22 11:11:18;;;;;;;4.97;2.30;;;;;;;25.57;42.11;97949.81;5085658;28;20048;-74
2023/09/22 11:13:52;;;;;;;5.55;2.58;;;;;;;25.49;44.17;97959.03;5085667;28;20044;-74
2023/09/22 11:16:19;;;;;;;4.93;2.20;;;;;;;25.55;44.17;97957.34;5085760;28;20036;-74
2023/09/22 11:18:46;;;;;;;3.25;2.03;;;;;;;25.64;43.00;97961.47;5084565;28;20098;-74
2023/09/22 11:21:13;;;;;;;6.28;2.80;;;;;;;25.31;42.13;97901.91;5084542;28;20053;-74
2023/09/22 11:23:42;;;;;;;4.25;2.47;;;;;;;25.00;42.26;97844.81;5085507;28;20052;-74
2023/09/22 11:26:10;;;;;;;4.13;2.20;;;;;;;25.69;43.84;97968.97;5085518;28;20051;-74
2023/09/22 11:28:40;;;;;;;4.00;2.28;;;;;;;25.66;44.33;97974.84;5085721;28;20066;-74
2023/09/22 11:31:11;;;;;;;4.97;2.30;;;;;;;25.54;44.77;97967.34;5085685;28;20078;-74
2023/09/22 11:33:38;;;;;;;3.78;2.50;;;;;;;25.67;43.95;97971.06;5085817;28;20235;-74
2023/09/22 11:36:06;;;;;;;4.03;2.78;;;;;;;25.74;42.21;97961.03;5085393;28;20047;-74
2023/09/22 11:38:35;;;;;;;6.93;2.85;;;;;;;25.81;42.44;97946.38;5084525;28;20053;-74